Julian Martinez

Olheiro-Chefe - Atletico Bucaramanga
4 Abr 2027
Domingo
Processo

Personalidade

Adaptabilidade (1) Ambição (9) Controvérsia (11) Lealdade (16) Pressão (10) Profissionalismo (8) Espírito Esportivo (2) Temperamento (19)

Perfil

Estilo de Treinamento Democrático
Licença Continental A
Determinação 7
Gestão de Pessoas 11
Motivação 7
Disciplina 5
Satisfação no Trabalho
50%
Fadiga
0%
Função Olheiro-Chefe
Salário 67.9K p/s
Contrato 14.03.2029

Desempenho

Comportamento Normal
Eficácia do Treinamento
13%
Desenvolvimento do Jogador
40%
Prevenção de Lesões
55%
Implementação Tática
35%

Eventos Recentes

Participou de uma reunião de recrutamento agora
Participou de uma reunião de recrutamento agora
Participou de uma reunião de recrutamento agora
Participou de uma reunião de recrutamento agora
Participou de uma reunião de recrutamento 7d atrás
Avaliou um jogador 7d atrás
Avaliou um jogador 7d atrás
Avaliou um jogador 7d atrás

Monitorando agora

210
Jogador Clube Status Habilidade Confiança Observado Última observação Último voto
Chris Rigg Sunderland Ativo 130 / 148 40% 3 03.04.2027 -
Ollie Scarles West Ham United Ativo 131 / 124 40% 3 03.04.2027 -
Axel Tape Bayer Leverkusen Ativo 123 / 133 40% 3 30.03.2027 -
Christ Inao Oulaï Fiorentina Ativo 129 / 154 40% 4 30.03.2027 -
Elias Baum Eintracht Frankfurt Ativo 135 / 137 40% 1 30.03.2027 -
Alessio Insignito Spezia Ativo 102 / 115 40% 2 28.03.2027 -
Alexis Vossah Toulouse FC Ativo 104 / 125 40% 1 28.03.2027 -
James Dornelly Peterborough United Ativo 96 / 113 40% 1 27.03.2027 -
Dylan Lawlor Cardiff City Ativo 108 / 123 40% 1 27.03.2027 -
Martim Cunha Porto Ativo 90 / 110 40% 1 26.03.2027 -
Lucas Jetten Cambuur Ativo 113 / 112 40% 1 26.03.2027 -
Obed Vargas Atlético Madrid Ativo 119 / 130 40% 1 26.03.2027 -
Riley Owen Pergolettese Ativo 113 / 105 40% 2 22.03.2027 -
Abdul Bukari WAFA Ativo 91 / 89 40% 1 22.03.2027 -
Caleb Yirenkyi Coventry City Ativo 136 / 152 40% 3 21.03.2027 -
Rhys Chadwick Peterborough United Ativo 88 / 110 40% 2 19.03.2027 -
Tiago Freitas Benfica Ativo 105 / 106 40% 1 19.03.2027 -
Alpha Touré FC Metz Ativo 102 / 112 40% 1 19.03.2027 -
Juan David Arizala Udinese Ativo 122 / 133 40% 1 18.03.2027 -
Luka Vušković Brighton Ativo 153 / 148 40% 1 18.03.2027 -
Sergio Quintero La Equidad Ativo 136 / 136 40% 2 16.03.2027 -
Felix Appiah WAFA Ativo 93 / 102 40% 1 16.03.2027 -
Gopolang Taunyane Wa All Stars Ativo 98 / 95 40% 1 15.03.2027 -
Maldini Kacurri Grimsby Town Ativo 82 / 84 40% 1 15.03.2027 -
Salvador Blopá Sporting CP Ativo 112 / 112 40% 3 12.03.2027 -
Kyrylo Dihtiar Metalist Ativo 88 / 116 40% 1 12.03.2027 -
Itumeleng Zungu Free State Stars Ativo 123 / 107 40% 2 10.03.2027 -
Thiago Helguera Braga Ativo 117 / 127 40% 2 10.03.2027 -
Rabby Nzingoula West Bromwich Albion Ativo 122 / 114 40% 3 10.03.2027 -
Bernardo Lima Porto Ativo 98 / 92 40% 3 09.03.2027 -
Jofre Torrents Ajax Ativo 114 / 123 40% 2 09.03.2027 -
Mattia Mannini Juve Stabia Ativo 103 / 132 40% 2 06.03.2027 -
Daniel Banjaqui Benfica Ativo 117 / 124 40% 2 14.02.2027 -
Daniel Vernattus Metalist Ativo 89 / 104 40% 1 14.02.2027 -
Roger Hinojo Espanyol Ativo 108 / 130 40% 2 13.02.2027 -
Albert Bukari Liberty Professionals Ativo 93 / 94 40% 1 08.02.2027 -
Honest Ahanor Atalanta Ativo 125 / 149 40% 1 08.02.2027 -
Joel Godoy Sevilla Ativo 122 / 123 40% 1 07.02.2027 -
Raymond Agyemang Aduana Stars Ativo 82 / 81 40% 2 06.02.2027 -
Simphiwe Selepe Orlando Pirates Ativo 104 / 122 40% 1 06.02.2027 -
Matías Pandiella Ludogorets Ativo 90 / 110 40% 1 06.02.2027 -
Matías Gómez Celta Rejeitado 126 / 129 40% 2 05.02.2027 Mais informações
Surprise Manthosi Polokwane City Ativo 103 / 102 40% 1 05.02.2027 -
Cemran Dansin Orlando Pirates Ativo 104 / 108 40% 2 04.02.2027 -
Victor Ehibe Real Bamako Ativo 83 / 89 40% 1 02.02.2027 -
Hlompho Mokoena SuperSport United Ativo 106 / 111 40% 1 01.02.2027 -
Jaygo van Ommeren Utrecht Ativo 95 / 120 40% 1 01.02.2027 -
Thorgan Nainggolan Mouscron Ativo 106 / 127 40% 1 08.01.2027 -
Filip Taraba Istra 1961 Ativo 107 / 110 40% 1 08.01.2027 -
Bianneider Tamayo Universidad de Chile Ativo 104 / 114 40% 1 07.01.2027 -
Pape Diong Westerlo Ativo 98 / 115 40% 1 06.01.2027 -
Juan Morán Alavés Ativo 109 / 102 40% 1 06.01.2027 -
Riyad Idrissi Cagliari Ativo 124 / 125 40% 1 06.01.2027 -
Santiago Fernández Talleres Ativo 125 / 128 40% 1 05.01.2027 -
Arjan Malić Sturm Graz Ativo 114 / 134 40% 1 04.01.2027 -
Santiago Rodríguez Gimnasia y Esgrima Ativo 121 / 111 40% 7 24.12.2026 -
Álex Arce Independiente Rivadavia Rejeitado 126 / 130 40% 3 24.12.2026 Rejeitar
Juan Fernando Garro Ankaragucu Negociando 101 / 96 40% 1 24.12.2026 -
Camilo Durán Bloemfontein Celtic Ativo 119 / 129 40% 4 23.12.2026 -
Ramiro Ruiz Rodríguez Atlético Tucumán Ativo 126 / 118 40% 4 23.12.2026 -
Nardin Mulahusejnović Vojvodina Ativo 122 / 134 40% 1 23.12.2026 -
Iqraam Rayners Mamelodi Sundowns Ativo 133 / 117 40% 1 22.12.2026 -
Tomás Molina Argentinos Juniors Ativo 128 / 126 40% 2 21.12.2026 -
Wandile Duba Bidvest Wits Ativo 115 / 91 40% 1 21.12.2026 -
Salah Mohsen El Masry Ativo 111 / 105 40% 1 21.12.2026 -
Jonás Acevedo Instituto Ativo 120 / 114 40% 2 07.12.2026 -
Gerard Deulofeu Slavia Prague Ativo 121 / 119 40% 1 07.12.2026 -
Andrés Arroyo Fortaleza CEIF Perdido 110 / 119 69% 1 06.12.2026 -
Arkaitz Mariezkurrena Real Sociedad Ativo 110 / 112 40% 1 30.11.2026 -
Antoine Griezmann Orlando City Ativo 157 / 142 40% 6 29.11.2026 -
Facundo Suárez Instituto Ativo 121 / 127 40% 3 29.11.2026 -
Nicolás Contín Gimnasia y Tiro Ativo 108 / 106 40% 2 29.11.2026 -
Jorge Benítez FCSB Ativo 99 / 111 40% 4 28.11.2026 -
Keagan Mothiba SuperSport United Ativo 111 / 105 40% 1 28.11.2026 -
Felipe Fernández Vorskla Ativo 92 / 106 40% 1 28.11.2026 -
Martín Pino Antalyaspor Ativo 125 / 127 40% 3 27.11.2026 -
Octavio Bianchi HNK Vukovar 1991 Ativo 100 / 107 40% 2 25.11.2026 -
Nicolás Cordero Aldosivi Ativo 122 / 122 40% 5 25.11.2026 -
Jhonatan Candia Barracas Central Ativo 124 / 127 40% 5 24.11.2026 -
Santiago Solari Racing Club Ativo 125 / 131 40% 2 24.11.2026 -
Ignacio Russo Tigre Ativo 124 / 128 40% 2 22.11.2026 -
Dani Gómez Zaragoza Ativo 111 / 116 40% 1 22.11.2026 -
Talisca Fenerbahce Ativo 142 / 147 40% 1 22.11.2026 Mais informações
Rodrigo Trejo Vorskla Ativo 82 / 79 40% 1 21.11.2026 -
David Barbona Defensa y Justicia Ativo 120 / 126 40% 6 19.11.2026 Observar
Facundo Krüger Temperley Ativo 109 / 109 40% 1 19.11.2026 -
Leandro Díaz Atlético Tucumán Ativo 122 / 118 40% 2 18.11.2026 -
Domi Berlanga Vicenza Ativo 85 / 107 40% 1 18.11.2026 -
Nicolás Fernández Belgrano Ativo 129 / 128 40% 3 17.11.2026 -
Alejandro Melo Temperley Ativo 122 / 108 40% 1 17.11.2026 -
Lucas González Estudiantes Ativo 106 / 110 40% 2 15.11.2026 -
Alexander Díaz Deportivo Riestra Ativo 123 / 116 40% 5 12.11.2026 -
Diego Valencia Gornik Leczna Ativo 111 / 111 40% 1 11.11.2026 -
José Barreto Fehervar Ativo 115 / 121 40% 1 10.11.2026 -
Facundo Pons San Martín Ativo 109 / 112 40% 1 10.11.2026 -
Lucas Passerini Belgrano Ativo 130 / 129 40% 1 09.11.2026 Mais informações
Bruno Sepúlveda Banfield Ativo 124 / 128 40% 3 07.11.2026 -
Ignacio Ramírez Newell's Old Boys Ativo 118 / 116 40% 1 07.11.2026 -
Favio Cabral Mitre Ativo 112 / 113 40% 3 06.11.2026 -
Facundo Di Biasi Gimnasia La Plata Ativo 110 / 128 40% 1 05.11.2026 -
Achraf Bencharki Al Ahly Ativo 131 / 128 40% 1 03.11.2026 Mais informações
Thiago Calone All Boys Ativo 117 / 118 40% 2 02.11.2026 -
Itumeleng Tau Ajax Cape Town Ativo 109 / 121 40% 1 02.11.2026 -
Davinchi Getafe Perdido 120 / 123 40% 1 02.11.2026 Mais informações
Agustín Obregón River Plate Ativo 102 / 117 40% 1 02.11.2026 Mais informações
Rodin Quiñónes Dinamo Batumi Ativo 120 / 120 40% 4 30.10.2026 -
Peter Shalulile Mamelodi Sundowns Ativo 130 / 130 40% 1 30.10.2026 -
Juan Rocca Gimnasia y Tiro Ativo 105 / 103 40% 2 27.10.2026 -
Alejandro Piedrahita Deportivo Pereira Ativo 126 / 114 40% 1 27.10.2026 -
Andrey Estupiñán Millonarios Ativo 128 / 125 40% 2 25.10.2026 -
Enzo González Defensores Ativo 101 / 99 40% 2 25.10.2026 -
Antony Alonso Deportivo Riestra Ativo 119 / 124 40% 2 24.10.2026 -
Emiliano Rigoni Belgrano Ativo 127 / 117 40% 2 23.10.2026 -
Enzo Copetti Rosario Central Ativo 127 / 119 40% 1 23.10.2026 -
Mauro Valiente Estudiantes Ativo 110 / 120 40% 1 23.10.2026 -
Marcelo Estigarribia Unión de Santa Fe Ativo 127 / 125 40% 2 21.10.2026 -
Rodrigo Bogarín Barracas Central Ativo 121 / 123 40% 1 21.10.2026 -
Edwar López Deportes Tolima Ativo 124 / 109 40% 1 21.10.2026 -
Leonardo Castro Millonarios Ativo 116 / 115 40% 1 20.10.2026 -
Juan Cruz de los Santos Nacional Ativo 130 / 131 40% 2 19.10.2026 -
Agustín Hausch Defensa y Justicia Ativo 112 / 123 40% 1 19.10.2026 -
Axel Frugone Defensor Sporting Ativo 115 / 115 40% 1 18.10.2026 -
Stefan Džodić Almería Ativo 109 / 108 40% 1 18.10.2026 -
Teun Gijselhart Deportivo La Coruña Ativo 98 / 119 40% 1 17.10.2026 -
Juan Pablo De la Reta Maipú Ativo 111 / 114 40% 1 17.10.2026 -
Enzo Cardozo Almirante Brown Ativo 105 / 113 40% 2 14.10.2026 -
Valente Pierani Estudiantes Ativo 116 / 114 40% 1 14.10.2026 -
Valentín Aguiñagalde Temperley Ativo 104 / 120 40% 1 14.10.2026 -
Alejo Fernández Kayserispor Ativo 87 / 99 40% 2 13.10.2026 -
Nahuel Arias San Lorenzo Ativo 109 / 117 40% 1 13.10.2026 -
Agustín Venezia Iquique Ativo 109 / 108 40% 3 11.10.2026 -
Marcelo Torres Gimnasia La Plata Ativo 126 / 123 40% 4 10.10.2026 -
Denis Bouanga Los Angeles Football Club Ativo 128 / 142 40% 1 08.10.2026 -
Claudio Salto Almagro Ativo 99 / 105 40% 1 07.10.2026 -
Ezequiel Aguirre Defensores Ativo 115 / 117 40% 1 07.10.2026 -
Carles Gil New England Revolution Ativo 138 / 128 40% 1 06.10.2026 -
Kyriani Sabbe Club Brugge Ativo 108 / 133 40% 1 06.10.2026 -
Lucas Richarte Temperley Ativo 107 / 107 40% 1 06.10.2026 -
José Pachuca Puebla Ativo 102 / 109 40% 2 05.10.2026 -
Nahuel Herrera Penarol Ativo 126 / 119 40% 1 05.10.2026 -
Santiago Cena Veracruz Ativo 113 / 124 40% 1 05.10.2026 -
Justo Giani Universidad Catolica Ativo 123 / 114 40% 2 03.10.2026 -
Ángel Sepúlveda Guadalajara Ativo 131 / 115 40% 3 02.10.2026 -
Jonathan Arteaga Veracruz Ativo 109 / 135 40% 3 28.09.2026 -
Maximiliano Gómez Nacional Ativo 126 / 124 40% 1 28.09.2026 -
Agustín De la Cuesta Racing Ativo 108 / 111 40% 1 28.09.2026 -
Anthony Lozano Santos Laguna Ativo 117 / 122 40% 5 26.09.2026 -
Franco Fagúndez Estudiantes Ativo 113 / 111 40% 1 26.09.2026 -
Tomás Fernández Aldosivi Ativo 124 / 114 40% 1 25.09.2026 -
Michael Barrios Once Caldas Ativo 128 / 114 40% 1 24.09.2026 -
Lucas Di Yorio Santos Laguna Ativo 105 / 128 40% 2 23.09.2026 -
Ian Garguez Palestino Ativo 102 / 116 40% 1 23.09.2026 -
Simón Pinto Palestino Ativo 97 / 94 40% 1 22.09.2026 -
Emilio Giaccone Unión de Santa Fe Ativo 99 / 113 40% 1 22.09.2026 -
Brian Montenegro Defensor Sporting Ativo 122 / 121 40% 1 20.09.2026 -
Francisco Fydriszewski Junior Ativo 128 / 125 40% 1 20.09.2026 -
Facundo Balatti Danubio Ativo 90 / 117 40% 1 20.09.2026 -
Clemente Montes Universidad Catolica Ativo 121 / 127 40% 2 18.09.2026 -
Gustavo Viera Cerro Largo Ativo 102 / 104 40% 1 18.09.2026 -
Alejo Cruz Juventud Ativo 125 / 122 40% 1 17.09.2026 -
Leandro Suhr Boston River Ativo 119 / 124 40% 1 16.09.2026 -
Maximiliano Rodríguez Huachipato Ativo 120 / 113 40% 1 15.09.2026 -
Federico Anselmo Palestino Ativo 115 / 113 40% 1 14.09.2026 -
Mourad Tijuana Ativo 109 / 110 40% 1 13.09.2026 -
Ismael Díaz Leon Ativo 122 / 118 40% 2 12.09.2026 -
Juan Peñaloza Vancouver Whitecaps Ativo 121 / 119 40% 1 12.09.2026 -
Gabriel Bravo Westerlo Ativo 104 / 104 40% 1 11.09.2026 -
Nicolás Orellana Audax Italiano Ativo 109 / 110 40% 1 11.09.2026 -
Juan Martín Lucero Universidad de Chile Ativo 120 / 124 40% 3 09.09.2026 -
Dylan Gorosito Boca Juniors Ativo 103 / 116 40% 1 08.09.2026 -
Gonzalo Escudero Racing Club Ativo 100 / 109 40% 1 08.09.2026 -
Diego Rosales Guadalajara Ativo 73 / 99 40% 1 07.09.2026 -
Iker Córdoba Valencia Ativo 94 / 125 40% 1 07.09.2026 -
Florián Monzón Atlas Ativo 131 / 113 40% 3 05.09.2026 -
Federico Viñas Toluca Ativo 126 / 127 40% 3 03.09.2026 -
Guillermo Martínez Pumas UNAM Ativo 125 / 127 40% 2 03.09.2026 -
Cristian Núñez Huracán Ativo 118 / 121 40% 1 01.09.2026 -
Felipe Mora San Luis Ativo 126 / 122 40% 1 01.09.2026 -
Michael Vadulli Audax Italiano Ativo 103 / 110 40% 2 31.08.2026 -
Kevin Méndez Union La Calera Ativo 102 / 101 40% 1 27.08.2026 -
Jonatan Torres Cerro Porteno Ativo 128 / 116 40% 1 25.08.2026 -
Cris Martínez Ativo 112 / 109 40% 1 25.08.2026 -
Matías Gallegos Antofagasta Ativo 101 / 108 40% 1 25.08.2026 -
Andrés Vilches Union Espanola Ativo 99 / 95 40% 1 21.08.2026 -
Paulinho Toluca Ativo 140 / 129 40% 1 21.08.2026 -
Luis Iberico Sporting Cristal Ativo 118 / 109 40% 2 20.08.2026 -
Gaspar Gentile Alianza Lima Ativo 111 / 111 40% 1 20.08.2026 -
Alan Pulido Guadalajara Ativo 128 / 126 40% 1 18.08.2026 -
Eryc Castillo Alianza Lima Ativo 116 / 125 40% 2 17.08.2026 -
Taisei Miyashiro Seattle Sounders Ativo 136 / 131 40% 2 16.08.2026 -
Osnar Noronha Cesar Vallejo Ativo 112 / 116 40% 1 16.08.2026 -
Ronnie Fernández Palestino Ativo 104 / 99 40% 1 15.08.2026 -
Marco Bustillo Zamora Ativo 110 / 104 40% 1 15.08.2026 -
Matías Campos López Union La Calera Ativo 109 / 110 40% 1 14.08.2026 -
Lionel Altamirano Huachipato Ativo 108 / 115 40% 1 13.08.2026 -
Brayan Hurtado Antofagasta Ativo 98 / 104 40% 1 13.08.2026 -
Adolfo Muñoz UTC Ativo 106 / 120 40% 2 12.08.2026 -
José Alí Meza Deportivo La Guaira Ativo 103 / 115 40% 2 12.08.2026 -
Alejandro Hohberg Cienciano Ativo 118 / 110 40% 1 10.08.2026 -
Anthony Uribe Standard Liege Ativo 115 / 100 40% 1 08.08.2026 -
Gabriel Ávalos Ativo 117 / 131 40% 1 07.08.2026 -
Diego Rossi Monterrey Ativo 134 / 128 40% 1 06.08.2026 -
Felipe Faúndez O'Higgins Ativo 96 / 105 40% 1 05.08.2026 -
Alessandro Guenin Defensa y Justicia Ativo 83 / 97 40% 1 05.08.2026 -
Michael Hoyos Ativo 123 / 122 40% 1 04.08.2026 -
Emanuel Coronel Rosario Central Ativo 132 / 126 40% 1 02.08.2026 -
Matías Melluso Gimnasia La Plata Ativo 124 / 121 40% 1 02.08.2026 -
Alejandro Gómez Tijuana Ativo 131 / 130 40% 1 01.08.2026 -
Jorge Morel Cerro Porteno Ativo 126 / 126 40% 1 01.08.2026 -
André Horta Almería Ativo 114 / 133 40% 1 01.08.2026 -